sensor_id;sensor_type;location;lat;lon;timestamp;P1;durP1;ratioP1;P2;durP2;ratioP2
81627;SDS011;71036;51.102;6.514;2024-02-21T00:00:28;28.23;;;7.63;;
81627;SDS011;71036;51.102;6.514;2024-02-21T00:02:53;27.93;;;8.17;;
81627;SDS011;71036;51.102;6.514;2024-02-21T00:05:18;20.20;;;6.63;;
81627;SDS011;71036;51.102;6.514;2024-02-21T00:07:43;19.47;;;6.90;;
81627;SDS011;71036;51.102;6.514;2024-02-21T00:10:11;26.67;;;6.70;;
81627;SDS011;71036;51.102;6.514;2024-02-21T00:12:37;25.63;;;7.80;;
81627;SDS011;71036;51.102;6.514;2024-02-21T00:15:02;19.20;;;6.77;;
81627;SDS011;71036;51.102;6.514;2024-02-21T00:17:27;37.63;;;8.67;;
81627;SDS011;71036;51.102;6.514;2024-02-21T00:19:53;17.60;;;7.10;;
81627;SDS011;71036;51.102;6.514;2024-02-21T00:22:18;27.97;;;7.97;;
81627;SDS011;71036;51.102;6.514;2024-02-21T00:24:43;33.40;;;7.83;;
81627;SDS011;71036;51.102;6.514;2024-02-21T00:27:09;32.03;;;7.63;;
81627;SDS011;71036;51.102;6.514;2024-02-21T00:29:34;21.70;;;6.93;;
81627;SDS011;71036;51.102;6.514;2024-02-21T00:31:59;17.23;;;7.60;;
81627;SDS011;71036;51.102;6.514;2024-02-21T00:34:25;19.93;;;7.70;;
81627;SDS011;71036;51.102;6.514;2024-02-21T00:36:50;23.60;;;8.27;;
81627;SDS011;71036;51.102;6.514;2024-02-21T00:39:15;37.60;;;7.30;;
81627;SDS011;71036;51.102;6.514;2024-02-21T00:41:41;21.10;;;9.50;;
81627;SDS011;71036;51.102;6.514;2024-02-21T00:44:06;23.33;;;7.50;;
81627;SDS011;71036;51.102;6.514;2024-02-21T00:46:31;16.87;;;6.93;;
81627;SDS011;71036;51.102;6.514;2024-02-21T00:48:57;23.70;;;9.33;;
81627;SDS011;71036;51.102;6.514;2024-02-21T00:51:22;27.97;;;8.80;;
81627;SDS011;71036;51.102;6.514;2024-02-21T00:53:47;36.77;;;7.33;;
81627;SDS011;71036;51.102;6.514;2024-02-21T00:56:13;24.93;;;8.07;;
81627;SDS011;71036;51.102;6.514;2024-02-21T00:58:38;27.00;;;8.93;;
81627;SDS011;71036;51.102;6.514;2024-02-21T01:01:03;25.17;;;8.27;;
81627;SDS011;71036;51.102;6.514;2024-02-21T01:03:28;33.50;;;9.20;;
81627;SDS011;71036;51.102;6.514;2024-02-21T01:05:54;28.67;;;7.07;;
81627;SDS011;71036;51.102;6.514;2024-02-21T01:08:19;26.07;;;7.80;;
81627;SDS011;71036;51.102;6.514;2024-02-21T01:10:44;20.03;;;6.77;;
81627;SDS011;71036;51.102;6.514;2024-02-21T01:13:10;18.67;;;6.27;;
81627;SDS011;71036;51.102;6.514;2024-02-21T01:15:35;24.27;;;8.20;;
81627;SDS011;71036;51.102;6.514;2024-02-21T01:18:00;19.70;;;6.57;;
81627;SDS011;71036;51.102;6.514;2024-02-21T01:20:26;21.40;;;6.73;;
81627;SDS011;71036;51.102;6.514;2024-02-21T01:22:51;17.03;;;6.67;;
81627;SDS011;71036;51.102;6.514;2024-02-21T01:25:17;19.47;;;8.00;;
81627;SDS011;71036;51.102;6.514;2024-02-21T01:27:42;28.10;;;7.53;;
81627;SDS011;71036;51.102;6.514;2024-02-21T01:30:08;19.87;;;6.33;;
81627;SDS011;71036;51.102;6.514;2024-02-21T01:32:35;18.63;;;6.60;;
81627;SDS011;71036;51.102;6.514;2024-02-21T01:35:00;14.37;;;6.27;;
81627;SDS011;71036;51.102;6.514;2024-02-21T01:37:26;29.27;;;6.70;;
81627;SDS011;71036;51.102;6.514;2024-02-21T01:39:51;24.40;;;6.50;;
81627;SDS011;71036;51.102;6.514;2024-02-21T01:42:17;29.30;;;8.63;;
81627;SDS011;71036;51.102;6.514;2024-02-21T01:44:42;18.27;;;6.70;;
81627;SDS011;71036;51.102;6.514;2024-02-21T01:47:08;20.80;;;8.43;;
81627;SDS011;71036;51.102;6.514;2024-02-21T01:49:33;23.47;;;6.40;;
81627;SDS011;71036;51.102;6.514;2024-02-21T01:51:58;19.53;;;7.13;;
81627;SDS011;71036;51.102;6.514;2024-02-21T01:54:24;25.63;;;7.70;;
81627;SDS011;71036;51.102;6.514;2024-02-21T01:56:53;19.10;;;8.40;;
81627;SDS011;71036;51.102;6.514;2024-02-21T01:59:19;15.93;;;6.40;;
81627;SDS011;71036;51.102;6.514;2024-02-21T02:01:46;21.57;;;7.60;;
81627;SDS011;71036;51.102;6.514;2024-02-21T02:04:11;43.77;;;7.10;;
81627;SDS011;71036;51.102;6.514;2024-02-21T02:06:37;23.13;;;6.80;;
81627;SDS011;71036;51.102;6.514;2024-02-21T02:09:02;16.77;;;6.07;;
81627;SDS011;71036;51.102;6.514;2024-02-21T02:11:28;19.87;;;7.50;;
81627;SDS011;71036;51.102;6.514;2024-02-21T02:13:53;13.57;;;6.87;;
81627;SDS011;71036;51.102;6.514;2024-02-21T02:16:19;20.53;;;6.10;;
81627;SDS011;71036;51.102;6.514;2024-02-21T02:18:44;20.43;;;7.70;;
81627;SDS011;71036;51.102;6.514;2024-02-21T02:21:10;19.20;;;6.87;;
81627;SDS011;71036;51.102;6.514;2024-02-21T02:23:47;18.27;;;6.47;;
81627;SDS011;71036;51.102;6.514;2024-02-21T02:26:13;23.37;;;6.77;;
81627;SDS011;71036;51.102;6.514;2024-02-21T02:28:38;21.93;;;7.10;;
81627;SDS011;71036;51.102;6.514;2024-02-21T02:31:03;31.70;;;8.20;;
81627;SDS011;71036;51.102;6.514;2024-02-21T02:33:28;15.70;;;6.27;;
81627;SDS011;71036;51.102;6.514;2024-02-21T02:35:54;22.97;;;7.07;;
81627;SDS011;71036;51.102;6.514;2024-02-21T02:38:19;20.77;;;6.83;;
81627;SDS011;71036;51.102;6.514;2024-02-21T02:40:45;18.73;;;6.40;;
81627;SDS011;71036;51.102;6.514;2024-02-21T02:43:10;18.93;;;6.47;;
81627;SDS011;71036;51.102;6.514;2024-02-21T02:45:35;12.67;;;4.93;;
81627;SDS011;71036;51.102;6.514;2024-02-21T02:48:01;18.90;;;6.90;;
81627;SDS011;71036;51.102;6.514;2024-02-21T02:50:26;24.77;;;6.40;;
81627;SDS011;71036;51.102;6.514;2024-02-21T02:52:52;13.70;;;6.27;;
81627;SDS011;71036;51.102;6.514;2024-02-21T02:55:18;22.93;;;8.43;;
81627;SDS011;71036;51.102;6.514;2024-02-21T02:57:44;21.73;;;5.37;;
81627;SDS011;71036;51.102;6.514;2024-02-21T03:00:12;25.10;;;6.57;;
81627;SDS011;71036;51.102;6.514;2024-02-21T03:02:39;28.67;;;6.37;;
81627;SDS011;71036;51.102;6.514;2024-02-21T03:05:13;18.58;;;6.63;;
81627;SDS011;71036;51.102;6.514;2024-02-21T03:07:39;20.23;;;6.70;;
81627;SDS011;71036;51.102;6.514;2024-02-21T03:10:05;19.60;;;6.13;;
81627;SDS011;71036;51.102;6.514;2024-02-21T03:12:31;22.57;;;6.50;;
81627;SDS011;71036;51.102;6.514;2024-02-21T03:14:57;19.33;;;5.93;;
81627;SDS011;71036;51.102;6.514;2024-02-21T03:17:22;14.80;;;4.90;;
81627;SDS011;71036;51.102;6.514;2024-02-21T03:19:48;19.40;;;4.93;;
81627;SDS011;71036;51.102;6.514;2024-02-21T03:22:14;23.33;;;5.30;;
81627;SDS011;71036;51.102;6.514;2024-02-21T03:24:40;19.90;;;5.80;;
81627;SDS011;71036;51.102;6.514;2024-02-21T03:27:06;14.83;;;4.83;;
81627;SDS011;71036;51.102;6.514;2024-02-21T03:29:31;15.63;;;4.90;;
81627;SDS011;71036;51.102;6.514;2024-02-21T03:31:57;19.97;;;5.50;;
81627;SDS011;71036;51.102;6.514;2024-02-21T03:34:22;13.70;;;5.33;;
81627;SDS011;71036;51.102;6.514;2024-02-21T03:36:47;13.70;;;5.83;;
81627;SDS011;71036;51.102;6.514;2024-02-21T03:39:12;14.83;;;5.00;;
81627;SDS011;71036;51.102;6.514;2024-02-21T03:41:38;15.47;;;5.40;;
81627;SDS011;71036;51.102;6.514;2024-02-21T03:44:03;12.73;;;5.47;;
81627;SDS011;71036;51.102;6.514;2024-02-21T03:46:29;11.53;;;5.00;;
81627;SDS011;71036;51.102;6.514;2024-02-21T03:48:55;19.17;;;5.30;;
81627;SDS011;71036;51.102;6.514;2024-02-21T03:51:20;11.07;;;4.70;;
81627;SDS011;71036;51.102;6.514;2024-02-21T03:53:45;14.53;;;4.90;;
81627;SDS011;71036;51.102;6.514;2024-02-21T03:56:11;18.70;;;5.20;;
81627;SDS011;71036;51.102;6.514;2024-02-21T03:58:36;22.37;;;5.30;;
81627;SDS011;71036;51.102;6.514;2024-02-21T04:01:01;20.20;;;5.73;;
81627;SDS011;71036;51.102;6.514;2024-02-21T04:03:28;35.20;;;5.80;;
81627;SDS011;71036;51.102;6.514;2024-02-21T04:05:53;20.20;;;6.33;;
81627;SDS011;71036;51.102;6.514;2024-02-21T04:08:18;9.57;;;3.80;;
81627;SDS011;71036;51.102;6.514;2024-02-21T04:10:44;16.20;;;5.40;;
81627;SDS011;71036;51.102;6.514;2024-02-21T04:13:09;21.50;;;6.47;;
81627;SDS011;71036;51.102;6.514;2024-02-21T04:15:35;16.83;;;6.53;;
81627;SDS011;71036;51.102;6.514;2024-02-21T04:18:00;17.70;;;5.20;;
81627;SDS011;71036;51.102;6.514;2024-02-21T04:20:26;12.33;;;5.60;;
81627;SDS011;71036;51.102;6.514;2024-02-21T04:22:52;15.87;;;5.47;;
81627;SDS011;71036;51.102;6.514;2024-02-21T04:25:17;19.13;;;5.00;;
81627;SDS011;71036;51.102;6.514;2024-02-21T04:27:42;21.07;;;5.40;;
81627;SDS011;71036;51.102;6.514;2024-02-21T04:30:08;20.83;;;5.47;;
81627;SDS011;71036;51.102;6.514;2024-02-21T04:32:34;14.57;;;4.97;;
81627;SDS011;71036;51.102;6.514;2024-02-21T04:35:00;9.93;;;4.33;;
81627;SDS011;71036;51.102;6.514;2024-02-21T04:37:25;13.23;;;5.50;;
81627;SDS011;71036;51.102;6.514;2024-02-21T04:39:50;17.77;;;5.00;;
81627;SDS011;71036;51.102;6.514;2024-02-21T04:42:16;9.30;;;4.53;;
81627;SDS011;71036;51.102;6.514;2024-02-21T04:44:41;16.50;;;5.00;;
81627;SDS011;71036;51.102;6.514;2024-02-21T04:47:07;13.03;;;5.10;;
81627;SDS011;71036;51.102;6.514;2024-02-21T04:49:32;19.40;;;5.60;;
81627;SDS011;71036;51.102;6.514;2024-02-21T04:51:58;19.50;;;5.70;;
81627;SDS011;71036;51.102;6.514;2024-02-21T04:54:23;22.93;;;6.77;;
81627;SDS011;71036;51.102;6.514;2024-02-21T04:56:49;24.97;;;6.60;;
81627;SDS011;71036;51.102;6.514;2024-02-21T04:59:15;29.73;;;5.83;;
81627;SDS011;71036;51.102;6.514;2024-02-21T05:01:40;11.63;;;5.63;;
81627;SDS011;71036;51.102;6.514;2024-02-21T05:04:05;17.77;;;5.27;;
81627;SDS011;71036;51.102;6.514;2024-02-21T05:06:31;26.43;;;5.17;;
81627;SDS011;71036;51.102;6.514;2024-02-21T05:08:56;17.30;;;6.10;;
81627;SDS011;71036;51.102;6.514;2024-02-21T05:11:22;14.40;;;5.00;;
81627;SDS011;71036;51.102;6.514;2024-02-21T05:13:48;24.00;;;5.10;;
81627;SDS011;71036;51.102;6.514;2024-02-21T05:16:13;16.73;;;5.23;;
81627;SDS011;71036;51.102;6.514;2024-02-21T05:18:40;19.93;;;4.90;;
81627;SDS011;71036;51.102;6.514;2024-02-21T05:21:05;9.93;;;4.10;;
81627;SDS011;71036;51.102;6.514;2024-02-21T05:23:30;21.77;;;5.30;;
81627;SDS011;71036;51.102;6.514;2024-02-21T05:25:56;13.90;;;5.27;;
81627;SDS011;71036;51.102;6.514;2024-02-21T05:28:21;18.13;;;5.60;;
81627;SDS011;71036;51.102;6.514;2024-02-21T05:30:46;14.90;;;5.10;;
81627;SDS011;71036;51.102;6.514;2024-02-21T05:33:12;21.13;;;4.70;;
81627;SDS011;71036;51.102;6.514;2024-02-21T05:35:37;17.60;;;4.10;;
81627;SDS011;71036;51.102;6.514;2024-02-21T05:38:03;17.37;;;5.10;;
81627;SDS011;71036;51.102;6.514;2024-02-21T05:40:36;16.03;;;6.50;;
81627;SDS011;71036;51.102;6.514;2024-02-21T05:43:01;23.93;;;5.10;;
81627;SDS011;71036;51.102;6.514;2024-02-21T05:45:27;12.67;;;4.63;;
81627;SDS011;71036;51.102;6.514;2024-02-21T05:47:52;17.37;;;5.00;;
81627;SDS011;71036;51.102;6.514;2024-02-21T05:50:17;15.10;;;3.90;;
81627;SDS011;71036;51.102;6.514;2024-02-21T05:52:43;19.43;;;5.63;;
81627;SDS011;71036;51.102;6.514;2024-02-21T05:55:08;18.17;;;4.73;;
81627;SDS011;71036;51.102;6.514;2024-02-21T05:57:34;18.47;;;4.17;;
81627;SDS011;71036;51.102;6.514;2024-02-21T05:59:59;8.90;;;3.43;;
81627;SDS011;71036;51.102;6.514;2024-02-21T06:02:25;22.93;;;4.67;;
81627;SDS011;71036;51.102;6.514;2024-02-21T06:04:50;14.77;;;4.20;;
81627;SDS011;71036;51.102;6.514;2024-02-21T06:07:15;19.87;;;4.17;;
81627;SDS011;71036;51.102;6.514;2024-02-21T06:09:41;20.63;;;4.20;;
81627;SDS011;71036;51.102;6.514;2024-02-21T06:12:06;12.50;;;4.43;;
81627;SDS011;71036;51.102;6.514;2024-02-21T06:14:31;19.90;;;4.60;;
81627;SDS011;71036;51.102;6.514;2024-02-21T06:16:57;15.27;;;4.60;;
81627;SDS011;71036;51.102;6.514;2024-02-21T06:19:22;21.27;;;4.53;;
81627;SDS011;71036;51.102;6.514;2024-02-21T06:21:47;12.73;;;3.90;;
81627;SDS011;71036;51.102;6.514;2024-02-21T06:24:12;8.10;;;3.93;;
81627;SDS011;71036;51.102;6.514;2024-02-21T06:26:39;10.50;;;3.37;;
81627;SDS011;71036;51.102;6.514;2024-02-21T06:29:05;13.43;;;4.33;;
81627;SDS011;71036;51.102;6.514;2024-02-21T06:31:30;11.40;;;3.67;;
81627;SDS011;71036;51.102;6.514;2024-02-21T06:33:56;10.70;;;5.20;;
81627;SDS011;71036;51.102;6.514;2024-02-21T06:36:22;10.03;;;3.90;;
81627;SDS011;71036;51.102;6.514;2024-02-21T06:38:47;7.67;;;3.87;;
81627;SDS011;71036;51.102;6.514;2024-02-21T06:41:16;11.10;;;4.73;;
81627;SDS011;71036;51.102;6.514;2024-02-21T06:43:43;11.77;;;3.60;;
81627;SDS011;71036;51.102;6.514;2024-02-21T06:46:09;9.10;;;3.37;;
81627;SDS011;71036;51.102;6.514;2024-02-21T06:48:35;13.70;;;3.13;;
81627;SDS011;71036;51.102;6.514;2024-02-21T06:51:00;9.13;;;3.37;;
81627;SDS011;71036;51.102;6.514;2024-02-21T06:53:25;10.57;;;3.63;;
81627;SDS011;71036;51.102;6.514;2024-02-21T06:55:50;6.70;;;2.93;;
81627;SDS011;71036;51.102;6.514;2024-02-21T06:58:16;15.70;;;3.67;;
81627;SDS011;71036;51.102;6.514;2024-02-21T07:00:42;11.77;;;3.70;;
81627;SDS011;71036;51.102;6.514;2024-02-21T07:03:08;5.00;;;3.20;;
81627;SDS011;71036;51.102;6.514;2024-02-21T07:05:33;10.47;;;3.63;;
81627;SDS011;71036;51.102;6.514;2024-02-21T07:07:58;17.43;;;4.10;;
81627;SDS011;71036;51.102;6.514;2024-02-21T07:10:24;10.90;;;4.00;;
81627;SDS011;71036;51.102;6.514;2024-02-21T07:12:49;10.80;;;4.47;;
81627;SDS011;71036;51.102;6.514;2024-02-21T07:15:17;13.07;;;3.87;;
81627;SDS011;71036;51.102;6.514;2024-02-21T07:17:42;15.87;;;4.13;;
81627;SDS011;71036;51.102;6.514;2024-02-21T07:20:07;8.17;;;3.40;;
81627;SDS011;71036;51.102;6.514;2024-02-21T07:22:33;12.30;;;4.30;;
81627;SDS011;71036;51.102;6.514;2024-02-21T07:24:59;8.17;;;3.60;;
81627;SDS011;71036;51.102;6.514;2024-02-21T07:27:24;17.20;;;4.33;;
81627;SDS011;71036;51.102;6.514;2024-02-21T07:29:52;11.47;;;3.17;;
81627;SDS011;71036;51.102;6.514;2024-02-21T07:32:18;8.47;;;2.67;;
81627;SDS011;71036;51.102;6.514;2024-02-21T07:34:43;10.83;;;3.40;;
81627;SDS011;71036;51.102;6.514;2024-02-21T07:37:09;8.93;;;2.00;;
81627;SDS011;71036;51.102;6.514;2024-02-21T07:39:37;13.20;;;3.50;;
81627;SDS011;71036;51.102;6.514;2024-02-21T07:42:02;12.60;;;3.00;;
81627;SDS011;71036;51.102;6.514;2024-02-21T07:44:28;8.77;;;3.27;;
81627;SDS011;71036;51.102;6.514;2024-02-21T07:46:53;13.37;;;3.37;;
81627;SDS011;71036;51.102;6.514;2024-02-21T07:49:18;14.40;;;3.50;;
81627;SDS011;71036;51.102;6.514;2024-02-21T07:51:43;11.27;;;2.87;;
81627;SDS011;71036;51.102;6.514;2024-02-21T07:54:09;11.40;;;3.47;;
81627;SDS011;71036;51.102;6.514;2024-02-21T07:56:34;16.43;;;4.50;;
81627;SDS011;71036;51.102;6.514;2024-02-21T07:58:59;19.40;;;3.97;;
81627;SDS011;71036;51.102;6.514;2024-02-21T08:01:25;7.57;;;3.27;;
81627;SDS011;71036;51.102;6.514;2024-02-21T08:03:50;9.33;;;3.27;;
81627;SDS011;71036;51.102;6.514;2024-02-21T08:06:15;10.87;;;4.00;;
81627;SDS011;71036;51.102;6.514;2024-02-21T08:08:41;11.20;;;3.97;;
81627;SDS011;71036;51.102;6.514;2024-02-21T08:11:06;10.50;;;3.80;;
81627;SDS011;71036;51.102;6.514;2024-02-21T08:13:31;8.50;;;3.50;;
81627;SDS011;71036;51.102;6.514;2024-02-21T08:15:57;10.97;;;3.70;;
81627;SDS011;71036;51.102;6.514;2024-02-21T08:18:22;13.73;;;3.63;;
81627;SDS011;71036;51.102;6.514;2024-02-21T08:20:47;15.67;;;4.40;;
81627;SDS011;71036;51.102;6.514;2024-02-21T08:23:15;16.70;;;3.43;;
81627;SDS011;71036;51.102;6.514;2024-02-21T08:25:41;11.07;;;3.30;;
81627;SDS011;71036;51.102;6.514;2024-02-21T08:28:06;10.80;;;3.07;;
81627;SDS011;71036;51.102;6.514;2024-02-21T08:30:32;7.90;;;2.20;;
81627;SDS011;71036;51.102;6.514;2024-02-21T08:33:00;12.10;;;3.47;;
81627;SDS011;71036;51.102;6.514;2024-02-21T08:35:26;9.00;;;3.03;;
81627;SDS011;71036;51.102;6.514;2024-02-21T08:37:51;7.50;;;2.87;;
81627;SDS011;71036;51.102;6.514;2024-02-21T08:40:16;6.30;;;3.27;;
81627;SDS011;71036;51.102;6.514;2024-02-21T08:42:46;10.60;;;2.87;;
81627;SDS011;71036;51.102;6.514;2024-02-21T08:45:12;10.90;;;2.70;;
81627;SDS011;71036;51.102;6.514;2024-02-21T08:47:40;5.17;;;2.70;;
81627;SDS011;71036;51.102;6.514;2024-02-21T08:50:06;11.63;;;2.80;;
81627;SDS011;71036;51.102;6.514;2024-02-21T08:52:32;4.50;;;2.50;;
81627;SDS011;71036;51.102;6.514;2024-02-21T08:54:57;7.70;;;2.57;;
81627;SDS011;71036;51.102;6.514;2024-02-21T08:57:23;8.63;;;3.50;;
81627;SDS011;71036;51.102;6.514;2024-02-21T08:59:48;19.43;;;2.60;;
81627;SDS011;71036;51.102;6.514;2024-02-21T09:02:14;20.87;;;2.73;;
81627;SDS011;71036;51.102;6.514;2024-02-21T09:04:41;10.50;;;2.80;;
81627;SDS011;71036;51.102;6.514;2024-02-21T09:07:06;10.80;;;2.47;;
81627;SDS011;71036;51.102;6.514;2024-02-21T09:09:32;9.73;;;3.07;;
81627;SDS011;71036;51.102;6.514;2024-02-21T09:11:58;18.23;;;3.30;;
81627;SDS011;71036;51.102;6.514;2024-02-21T09:14:30;7.90;;;2.87;;
81627;SDS011;71036;51.102;6.514;2024-02-21T09:16:55;11.63;;;2.20;;
81627;SDS011;71036;51.102;6.514;2024-02-21T09:19:21;6.70;;;2.30;;
81627;SDS011;71036;51.102;6.514;2024-02-21T09:21:46;10.43;;;2.67;;
81627;SDS011;71036;51.102;6.514;2024-02-21T09:24:11;6.90;;;1.93;;
81627;SDS011;71036;51.102;6.514;2024-02-21T09:26:36;3.00;;;1.73;;
81627;SDS011;71036;51.102;6.514;2024-02-21T09:29:02;4.07;;;1.80;;
81627;SDS011;71036;51.102;6.514;2024-02-21T09:31:28;10.57;;;2.10;;
81627;SDS011;71036;51.102;6.514;2024-02-21T09:33:54;8.53;;;2.30;;
81627;SDS011;71036;51.102;6.514;2024-02-21T09:36:19;8.60;;;2.30;;
81627;SDS011;71036;51.102;6.514;2024-02-21T09:38:46;12.43;;;2.43;;
81627;SDS011;71036;51.102;6.514;2024-02-21T09:41:18;6.87;;;2.13;;
81627;SDS011;71036;51.102;6.514;2024-02-21T09:43:49;5.07;;;2.30;;
81627;SDS011;71036;51.102;6.514;2024-02-21T09:46:18;4.20;;;2.00;;
81627;SDS011;71036;51.102;6.514;2024-02-21T09:51:46;2.80;;;2.00;;
81627;SDS011;71036;51.102;6.514;2024-02-21T09:54:14;5.17;;;2.33;;
81627;SDS011;71036;51.102;6.514;2024-02-21T09:56:40;2.67;;;1.63;;
81627;SDS011;71036;51.102;6.514;2024-02-21T09:59:05;12.97;;;1.87;;
81627;SDS011;71036;51.102;6.514;2024-02-21T10:01:31;4.73;;;2.20;;
81627;SDS011;71036;51.102;6.514;2024-02-21T10:03:57;5.07;;;2.00;;
81627;SDS011;71036;51.102;6.514;2024-02-21T10:06:22;10.47;;;2.10;;
81627;SDS011;71036;51.102;6.514;2024-02-21T10:08:53;7.33;;;2.23;;
81627;SDS011;71036;51.102;6.514;2024-02-21T10:11:25;7.10;;;1.80;;
81627;SDS011;71036;51.102;6.514;2024-02-21T10:13:51;7.90;;;2.03;;
81627;SDS011;71036;51.102;6.514;2024-02-21T10:16:16;8.57;;;1.87;;
81627;SDS011;71036;51.102;6.514;2024-02-21T10:18:42;11.67;;;2.20;;
81627;SDS011;71036;51.102;6.514;2024-02-21T10:21:07;7.20;;;1.83;;
81627;SDS011;71036;51.102;6.514;2024-02-21T10:23:43;10.47;;;2.40;;
81627;SDS011;71036;51.102;6.514;2024-02-21T10:26:12;6.90;;;2.13;;
81627;SDS011;71036;51.102;6.514;2024-02-21T10:28:39;16.97;;;3.30;;
81627;SDS011;71036;51.102;6.514;2024-02-21T10:31:09;7.40;;;1.60;;
81627;SDS011;71036;51.102;6.514;2024-02-21T10:33:35;10.43;;;2.83;;
81627;SDS011;71036;51.102;6.514;2024-02-21T10:36:11;7.13;;;2.10;;
81627;SDS011;71036;51.102;6.514;2024-02-21T10:38:37;10.30;;;2.17;;
81627;SDS011;71036;51.102;6.514;2024-02-21T10:41:04;7.30;;;2.10;;
81627;SDS011;71036;51.102;6.514;2024-02-21T10:43:30;9.73;;;2.50;;
81627;SDS011;71036;51.102;6.514;2024-02-21T10:46:03;14.60;;;2.33;;
81627;SDS011;71036;51.102;6.514;2024-02-21T10:48:32;11.13;;;1.80;;
81627;SDS011;71036;51.102;6.514;2024-02-21T10:51:07;8.43;;;1.90;;
81627;SDS011;71036;51.102;6.514;2024-02-21T10:53:50;11.87;;;2.47;;
81627;SDS011;71036;51.102;6.514;2024-02-21T10:56:38;5.17;;;1.83;;
81627;SDS011;71036;51.102;6.514;2024-02-21T10:59:06;6.20;;;1.77;;
81627;SDS011;71036;51.102;6.514;2024-02-21T11:01:32;4.63;;;1.90;;
81627;SDS011;71036;51.102;6.514;2024-02-21T11:04:06;6.50;;;2.47;;
81627;SDS011;71036;51.102;6.514;2024-02-21T11:06:34;6.83;;;2.10;;
81627;SDS011;71036;51.102;6.514;2024-02-21T11:09:05;3.60;;;1.70;;
81627;SDS011;71036;51.102;6.514;2024-02-21T11:16:44;3.67;;;1.57;;
81627;SDS011;71036;51.102;6.514;2024-02-21T11:21:47;12.83;;;1.97;;
81627;SDS011;71036;51.102;6.514;2024-02-21T11:24:13;8.77;;;1.97;;
81627;SDS011;71036;51.102;6.514;2024-02-21T11:26:39;7.57;;;2.53;;
81627;SDS011;71036;51.102;6.514;2024-02-21T11:29:07;8.87;;;2.40;;
81627;SDS011;71036;51.102;6.514;2024-02-21T11:31:43;5.40;;;2.37;;
81627;SDS011;71036;51.102;6.514;2024-02-21T11:34:11;7.57;;;1.80;;
81627;SDS011;71036;51.102;6.514;2024-02-21T11:36:46;6.67;;;1.90;;
81627;SDS011;71036;51.102;6.514;2024-02-21T11:39:19;12.37;;;3.17;;
81627;SDS011;71036;51.102;6.514;2024-02-21T11:42:02;8.20;;;2.17;;
81627;SDS011;71036;51.102;6.514;2024-02-21T11:44:28;4.13;;;1.97;;
81627;SDS011;71036;51.102;6.514;2024-02-21T11:46:54;9.10;;;1.67;;
81627;SDS011;71036;51.102;6.514;2024-02-21T11:49:20;6.00;;;2.03;;
81627;SDS011;71036;51.102;6.514;2024-02-21T11:51:45;7.60;;;2.27;;
81627;SDS011;71036;51.102;6.514;2024-02-21T11:54:11;4.90;;;1.67;;
81627;SDS011;71036;51.102;6.514;2024-02-21T11:56:38;10.70;;;3.03;;
81627;SDS011;71036;51.102;6.514;2024-02-21T11:59:03;7.73;;;2.30;;
81627;SDS011;71036;51.102;6.514;2024-02-21T12:01:30;11.00;;;2.60;;
81627;SDS011;71036;51.102;6.514;2024-02-21T12:03:56;5.70;;;2.17;;
81627;SDS011;71036;51.102;6.514;2024-02-21T12:06:21;15.30;;;1.90;;
81627;SDS011;71036;51.102;6.514;2024-02-21T12:08:47;4.63;;;2.53;;
81627;SDS011;71036;51.102;6.514;2024-02-21T12:11:19;3.30;;;2.17;;
81627;SDS011;71036;51.102;6.514;2024-02-21T12:13:46;8.47;;;2.53;;
81627;SDS011;71036;51.102;6.514;2024-02-21T12:16:12;7.03;;;2.27;;
81627;SDS011;71036;51.102;6.514;2024-02-21T12:18:40;9.20;;;2.00;;
81627;SDS011;71036;51.102;6.514;2024-02-21T12:21:05;12.73;;;2.43;;
81627;SDS011;71036;51.102;6.514;2024-02-21T12:23:31;6.53;;;2.03;;
81627;SDS011;71036;51.102;6.514;2024-02-21T12:25:56;9.13;;;1.70;;
81627;SDS011;71036;51.102;6.514;2024-02-21T12:28:21;9.67;;;1.70;;
81627;SDS011;71036;51.102;6.514;2024-02-21T12:30:47;17.67;;;2.23;;
81627;SDS011;71036;51.102;6.514;2024-02-21T12:33:12;8.90;;;2.00;;
81627;SDS011;71036;51.102;6.514;2024-02-21T12:35:39;6.63;;;1.80;;
81627;SDS011;71036;51.102;6.514;2024-02-21T12:38:04;6.47;;;1.70;;
81627;SDS011;71036;51.102;6.514;2024-02-21T12:40:30;3.57;;;2.17;;
81627;SDS011;71036;51.102;6.514;2024-02-21T12:42:59;6.80;;;2.27;;
81627;SDS011;71036;51.102;6.514;2024-02-21T12:45:25;4.37;;;1.93;;
81627;SDS011;71036;51.102;6.514;2024-02-21T12:47:51;8.40;;;2.00;;
81627;SDS011;71036;51.102;6.514;2024-02-21T12:50:16;4.70;;;2.33;;
81627;SDS011;71036;51.102;6.514;2024-02-21T12:52:42;4.70;;;1.80;;
81627;SDS011;71036;51.102;6.514;2024-02-21T12:55:07;8.97;;;2.50;;
81627;SDS011;71036;51.102;6.514;2024-02-21T12:57:35;10.37;;;2.43;;
81627;SDS011;71036;51.102;6.514;2024-02-21T13:00:02;7.57;;;1.83;;
81627;SDS011;71036;51.102;6.514;2024-02-21T13:02:28;9.60;;;2.60;;
81627;SDS011;71036;51.102;6.514;2024-02-21T13:04:53;7.57;;;2.00;;
81627;SDS011;71036;51.102;6.514;2024-02-21T13:07:19;6.20;;;2.07;;
81627;SDS011;71036;51.102;6.514;2024-02-21T13:09:44;2.50;;;1.07;;
81627;SDS011;71036;51.102;6.514;2024-02-21T13:12:09;6.80;;;2.43;;
81627;SDS011;71036;51.102;6.514;2024-02-21T13:14:35;5.53;;;2.17;;
81627;SDS011;71036;51.102;6.514;2024-02-21T13:17:03;11.43;;;2.50;;
81627;SDS011;71036;51.102;6.514;2024-02-21T13:19:29;7.73;;;1.87;;
81627;SDS011;71036;51.102;6.514;2024-02-21T13:21:54;8.40;;;2.37;;
81627;SDS011;71036;51.102;6.514;2024-02-21T13:24:19;15.83;;;3.00;;
81627;SDS011;71036;51.102;6.514;2024-02-21T13:26:45;3.20;;;1.50;;
81627;SDS011;71036;51.102;6.514;2024-02-21T13:29:10;5.20;;;1.93;;
81627;SDS011;71036;51.102;6.514;2024-02-21T13:31:35;9.10;;;1.97;;
81627;SDS011;71036;51.102;6.514;2024-02-21T13:34:01;5.53;;;2.50;;
81627;SDS011;71036;51.102;6.514;2024-02-21T13:36:26;8.63;;;1.67;;
81627;SDS011;71036;51.102;6.514;2024-02-21T13:38:51;10.90;;;1.90;;
81627;SDS011;71036;51.102;6.514;2024-02-21T13:41:17;8.63;;;1.70;;
81627;SDS011;71036;51.102;6.514;2024-02-21T13:43:43;7.20;;;1.90;;
81627;SDS011;71036;51.102;6.514;2024-02-21T13:46:08;5.40;;;1.97;;
81627;SDS011;71036;51.102;6.514;2024-02-21T13:48:34;9.40;;;2.00;;
81627;SDS011;71036;51.102;6.514;2024-02-21T13:51:00;6.10;;;1.67;;
81627;SDS011;71036;51.102;6.514;2024-02-21T13:53:27;7.43;;;2.00;;
81627;SDS011;71036;51.102;6.514;2024-02-21T13:55:52;3.50;;;1.30;;
81627;SDS011;71036;51.102;6.514;2024-02-21T13:58:17;5.50;;;1.73;;
81627;SDS011;71036;51.102;6.514;2024-02-21T14:00:43;15.10;;;2.60;;
81627;SDS011;71036;51.102;6.514;2024-02-21T14:03:08;7.53;;;1.70;;
81627;SDS011;71036;51.102;6.514;2024-02-21T14:05:34;8.17;;;2.47;;
81627;SDS011;71036;51.102;6.514;2024-02-21T14:08:00;10.90;;;1.60;;
81627;SDS011;71036;51.102;6.514;2024-02-21T14:10:25;5.63;;;2.03;;
81627;SDS011;71036;51.102;6.514;2024-02-21T14:12:50;6.73;;;1.83;;
81627;SDS011;71036;51.102;6.514;2024-02-21T14:15:15;9.47;;;2.33;;
81627;SDS011;71036;51.102;6.514;2024-02-21T14:17:41;6.53;;;2.03;;
81627;SDS011;71036;51.102;6.514;2024-02-21T14:20:07;9.30;;;1.87;;
81627;SDS011;71036;51.102;6.514;2024-02-21T14:22:33;9.00;;;2.80;;
81627;SDS011;71036;51.102;6.514;2024-02-21T14:24:59;13.87;;;3.13;;
81627;SDS011;71036;51.102;6.514;2024-02-21T14:27:25;7.37;;;2.37;;
81627;SDS011;71036;51.102;6.514;2024-02-21T14:29:50;7.83;;;1.70;;
81627;SDS011;71036;51.102;6.514;2024-02-21T14:32:15;3.47;;;1.30;;
81627;SDS011;71036;51.102;6.514;2024-02-21T14:34:41;3.27;;;1.80;;
81627;SDS011;71036;51.102;6.514;2024-02-21T14:37:06;3.23;;;1.27;;
81627;SDS011;71036;51.102;6.514;2024-02-21T14:39:31;4.40;;;1.60;;
81627;SDS011;71036;51.102;6.514;2024-02-21T14:41:59;2.43;;;1.13;;